Time;durP1;ratioP1;P1;durP2;ratioP2;P2;SDS_P1;SDS_P2;PMS_P1;PMS_P2;Temp;Humidity;BMP_temperature;BMP_pressure;BME280_temperature;BME280_humidity;BME280_pressure;Samples;Min_cycle;Max_cycle;Signal;HPM_P1;HPM_P2
2022/04/18 00:00:36;;;;;;;13.30;8.45;;;8.70;68.40;;;;;;4967834;28;20133;-68
2022/04/18 00:03:04;;;;;;;11.77;8.27;;;8.70;68.30;;;;;;4965935;28;20187;-68
2022/04/18 00:05:31;;;;;;;10.52;8.75;;;8.60;68.40;;;;;;4967868;28;20102;-68
2022/04/18 00:07:56;;;;;;;11.32;7.38;;;8.60;68.90;;;;;;4967050;28;20504;-69
2022/04/18 00:10:22;;;;;;;12.18;7.55;;;8.50;69.00;;;;;;4968901;28;20042;-68
2022/04/18 00:12:47;;;;;;;12.18;8.60;;;8.50;69.30;;;;;;4966871;28;20485;-68
2022/04/18 00:15:13;;;;;;;10.98;8.13;;;8.50;69.10;;;;;;4966574;28;20130;-68
2022/04/18 00:17:39;;;;;;;11.93;8.30;;;8.50;69.50;;;;;;4968661;28;20057;-68
2022/04/18 00:20:05;;;;;;;12.73;8.05;;;8.50;69.10;;;;;;4964681;28;20046;-68
2022/04/18 00:22:31;;;;;;;9.85;7.93;;;8.50;69.10;;;;;;4966749;28;20064;-68
2022/04/18 00:24:56;;;;;;;11.05;7.93;;;8.50;69.00;;;;;;4964376;28;20941;-68
2022/04/18 00:27:22;;;;;;;12.23;8.10;;;8.50;69.00;;;;;;4966041;28;20039;-68
2022/04/18 00:29:47;;;;;;;10.38;8.48;;;8.50;69.10;;;;;;4969080;28;20037;-68
2022/04/18 00:32:14;;;;;;;12.45;8.65;;;8.50;69.20;;;;;;4946179;28;20105;-68
2022/04/18 00:34:41;;;;;;;12.23;8.27;;;8.50;69.10;;;;;;4966344;28;20485;-68
2022/04/18 00:37:06;;;;;;;11.23;8.00;;;8.50;69.10;;;;;;4982634;28;20039;-68
2022/04/18 00:39:32;;;;;;;9.77;7.55;;;8.40;69.10;;;;;;4967244;28;20069;-68
2022/04/18 00:41:58;;;;;;;12.60;7.82;;;8.40;69.10;;;;;;4967381;28;20066;-67
2022/04/18 00:44:23;;;;;;;14.98;8.55;;;8.40;69.10;;;;;;4967223;28;20070;-68
2022/04/18 00:46:49;;;;;;;13.95;7.90;;;8.40;68.90;;;;;;4966063;28;20508;-68
2022/04/18 00:49:15;;;;;;;13.68;7.90;;;8.40;68.90;;;;;;4967092;28;20434;-68
2022/04/18 00:51:40;;;;;;;11.38;7.55;;;8.50;68.40;;;;;;4965625;28;20047;-68
2022/04/18 00:54:06;;;;;;;13.13;8.85;;;8.50;68.80;;;;;;4972267;28;20519;-68
2022/04/18 00:56:32;;;;;;;10.82;7.78;;;8.40;68.90;;;;;;4971494;28;20046;-68
2022/04/18 00:58:58;;;;;;;12.32;8.02;;;8.40;69.00;;;;;;4963821;28;20045;-67
2022/04/18 01:01:24;;;;;;;10.85;8.65;;;8.40;69.10;;;;;;4969768;28;20052;-70
2022/04/18 01:03:50;;;;;;;13.13;8.02;;;8.40;69.00;;;;;;4972863;28;21010;-70
2022/04/18 01:06:16;;;;;;;11.50;8.18;;;8.40;69.20;;;;;;4971145;28;20066;-68
2022/04/18 01:08:42;;;;;;;12.10;8.35;;;8.40;69.00;;;;;;4969008;28;20681;-68
2022/04/18 01:11:09;;;;;;;12.55;8.75;;;8.40;69.20;;;;;;4964496;28;20548;-67
2022/04/18 01:13:47;;;;;;;12.98;8.20;;;8.30;68.90;;;;;;4967285;28;20613;-67
2022/04/18 01:16:13;;;;;;;13.02;8.13;;;8.30;69.10;;;;;;4987028;28;20165;-67
2022/04/18 01:18:39;;;;;;;13.52;9.13;;;8.30;69.30;;;;;;4970997;28;20117;-67
2022/04/18 01:21:06;;;;;;;10.70;7.80;;;8.30;69.30;;;;;;4969747;28;20522;-67
2022/04/18 01:23:32;;;;;;;14.20;8.85;;;8.30;69.20;;;;;;4969107;28;20042;-67
2022/04/18 01:31:31;;;;;;;11.73;8.25;;;8.20;69.10;;;;;;4965156;28;20047;-68
2022/04/18 01:33:57;;;;;;;11.73;8.45;;;8.20;69.20;;;;;;4970404;28;20035;-68
2022/04/18 01:36:23;;;;;;;11.35;8.48;;;8.20;69.40;;;;;;4971545;28;20129;-68
2022/04/18 01:38:49;;;;;;;14.00;8.77;;;8.10;69.50;;;;;;4986615;28;20041;-68
2022/04/18 01:41:15;;;;;;;12.48;8.55;;;8.20;69.50;;;;;;4965991;28;20046;-68
2022/04/18 01:43:40;;;;;;;11.95;9.18;;;8.10;69.70;;;;;;4971462;28;20074;-68
2022/04/18 01:46:06;;;;;;;12.77;8.98;;;8.00;69.70;;;;;;4969767;28;20089;-68
2022/04/18 01:48:31;;;;;;;13.02;8.32;;;8.00;70.30;;;;;;4968725;28;20489;-68
2022/04/18 01:50:57;;;;;;;12.55;8.98;;;7.90;70.90;;;;;;4967049;28;20418;-68
2022/04/18 01:53:23;;;;;;;13.85;8.48;;;7.90;71.90;;;;;;4968463;28;20393;-68
2022/04/18 01:55:49;;;;;;;14.05;9.63;;;7.80;72.30;;;;;;4969627;28;21020;-68
2022/04/18 01:58:14;;;;;;;12.95;9.57;;;7.70;73.00;;;;;;4966798;28;20034;-68
2022/04/18 02:00:40;;;;;;;13.88;9.30;;;7.70;73.20;;;;;;4983558;28;20125;-68
2022/04/18 02:03:05;;;;;;;13.00;9.25;;;7.70;73.40;;;;;;4969801;28;20050;-68
2022/04/18 02:05:31;;;;;;;17.08;9.70;;;7.60;73.20;;;;;;4970045;28;20054;-68
2022/04/18 02:07:57;;;;;;;14.27;9.88;;;7.50;73.30;;;;;;4969322;28;20078;-68
2022/04/18 02:10:22;;;;;;;16.27;9.13;;;7.60;73.20;;;;;;4962958;28;20146;-68
2022/04/18 02:12:48;;;;;;;13.95;10.18;;;7.50;73.50;;;;;;4969285;28;20049;-67
2022/04/18 02:15:15;;;;;;;15.02;10.50;;;7.50;73.70;;;;;;4985060;28;20077;-67
2022/04/18 02:17:41;;;;;;;13.13;9.00;;;7.50;73.40;;;;;;4984535;28;20082;-67
2022/04/18 02:20:07;;;;;;;15.77;9.25;;;7.40;73.40;;;;;;4967624;28;20125;-67
2022/04/18 02:22:33;;;;;;;15.95;9.77;;;7.40;73.60;;;;;;4985113;28;20493;-67
2022/04/18 02:24:58;;;;;;;13.75;9.70;;;7.40;73.50;;;;;;4972048;28;20043;-67
2022/04/18 02:27:24;;;;;;;17.45;9.77;;;7.40;73.90;;;;;;4970354;28;20401;-67
2022/04/18 02:29:50;;;;;;;17.98;10.05;;;7.40;73.80;;;;;;4969974;28;20117;-68
2022/04/18 02:35:00;;;;;;;13.77;9.55;;;7.30;74.20;;;;;;4965155;28;20050;-67
2022/04/18 02:37:25;;;;;;;14.88;9.10;;;7.30;74.40;;;;;;4966989;28;20038;-68
2022/04/18 02:39:54;;;;;;;16.95;10.95;;;7.30;74.60;;;;;;4968098;28;20045;-68
2022/04/18 02:42:20;;;;;;;16.25;9.65;;;7.30;74.60;;;;;;4966465;28;20054;-68
2022/04/18 02:44:46;;;;;;;15.27;10.02;;;7.20;74.60;;;;;;4968250;28;20047;-68
2022/04/18 02:47:12;;;;;;;13.90;9.90;;;7.20;74.80;;;;;;4969328;28;20485;-68
2022/04/18 02:49:38;;;;;;;15.80;10.07;;;7.20;75.00;;;;;;4969275;28;20118;-68
2022/04/18 02:52:07;;;;;;;13.15;9.45;;;7.10;75.40;;;;;;4966740;28;20043;-68
2022/04/18 02:54:33;;;;;;;13.50;9.65;;;7.20;75.60;;;;;;4985160;28;20157;-68
2022/04/18 02:56:58;;;;;;;12.82;10.02;;;7.10;76.00;;;;;;4967771;28;20134;-67
2022/04/18 02:59:24;;;;;;;13.43;8.82;;;7.10;76.80;;;;;;4984755;28;20042;-67
2022/04/18 03:01:49;;;;;;;13.45;9.63;;;7.00;78.00;;;;;;4968542;28;20045;-68
2022/04/18 03:04:15;;;;;;;16.58;10.07;;;7.00;78.70;;;;;;4984028;28;20047;-68
2022/04/18 03:06:40;;;;;;;14.20;9.95;;;7.00;79.60;;;;;;4971038;28;20137;-68
2022/04/18 03:09:06;;;;;;;15.85;9.93;;;6.90;80.10;;;;;;4981661;28;20050;-68
2022/04/18 03:11:32;;;;;;;13.20;10.05;;;6.90;80.50;;;;;;4969448;28;20046;-67
2022/04/18 03:13:57;;;;;;;14.55;9.27;;;6.90;80.30;;;;;;4983024;28;20039;-67
2022/04/18 03:16:23;;;;;;;15.80;9.05;;;6.90;80.20;;;;;;4968813;28;20034;-67
2022/04/18 03:18:49;;;;;;;13.82;9.48;;;6.90;80.10;;;;;;4967947;28;20078;-68
2022/04/18 03:21:16;;;;;;;15.77;9.50;;;6.80;80.40;;;;;;4969877;28;20042;-68
2022/04/18 03:23:44;;;;;;;15.38;9.18;;;6.80;80.60;;;;;;4949851;28;20039;-68
2022/04/18 03:26:10;;;;;;;13.90;9.93;;;6.80;80.70;;;;;;4969294;28;20050;-68
2022/04/18 03:28:36;;;;;;;12.30;8.88;;;6.70;80.70;;;;;;4967642;28;20043;-68
2022/04/18 03:31:01;;;;;;;14.50;9.10;;;6.70;81.00;;;;;;4968283;28;20043;-68
2022/04/18 03:33:27;;;;;;;12.30;9.15;;;6.70;81.30;;;;;;4968348;28;20023;-68
2022/04/18 03:41:21;;;;;;;15.60;9.68;;;6.60;83.40;;;;;;4968495;28;20050;-68
2022/04/18 03:43:46;;;;;;;14.20;9.52;;;6.60;84.20;;;;;;4967116;28;20109;-68
2022/04/18 03:46:12;;;;;;;13.95;9.57;;;6.50;85.10;;;;;;4969296;28;20186;-68
2022/04/18 03:48:38;;;;;;;13.65;8.95;;;6.50;85.10;;;;;;4963876;28;20042;-68
2022/04/18 03:51:03;;;;;;;13.15;9.88;;;6.50;85.10;;;;;;4966557;28;20039;-68
2022/04/18 03:53:29;;;;;;;11.30;8.80;;;6.40;85.10;;;;;;4968856;28;20039;-68
2022/04/18 03:55:54;;;;;;;11.57;8.75;;;6.50;85.00;;;;;;4966851;28;20054;-68
2022/04/18 03:58:20;;;;;;;13.32;9.32;;;6.50;84.80;;;;;;4968619;28;20066;-68
2022/04/18 04:00:46;;;;;;;14.90;8.90;;;6.40;84.50;;;;;;4967075;28;20042;-68
2022/04/18 04:03:12;;;;;;;14.10;9.32;;;6.40;84.50;;;;;;4967469;28;20050;-68
2022/04/18 04:05:38;;;;;;;16.00;10.10;;;6.40;84.50;;;;;;4982033;28;20127;-68
2022/04/18 04:08:04;;;;;;;17.13;9.65;;;6.30;84.10;;;;;;4967862;28;20488;-68
2022/04/18 04:10:30;;;;;;;14.75;8.73;;;6.30;83.50;;;;;;4967318;28;20042;-68
2022/04/18 04:12:55;;;;;;;16.50;9.27;;;6.30;83.50;;;;;;4966888;28;20039;-68
2022/04/18 04:15:21;;;;;;;14.45;9.98;;;6.30;83.60;;;;;;4966309;28;20038;-68
2022/04/18 04:17:47;;;;;;;16.20;10.10;;;6.30;84.00;;;;;;4967086;28;20062;-68
2022/04/18 04:20:12;;;;;;;12.05;9.00;;;6.30;83.90;;;;;;4966525;28;20089;-68
2022/04/18 04:22:48;;;;;;;12.48;9.30;;;6.30;84.20;;;;;;4966135;28;20156;-68
2022/04/18 04:25:14;;;;;;;14.70;9.73;;;6.30;84.70;;;;;;4966266;28;20490;-68
2022/04/18 04:27:40;;;;;;;13.57;8.35;;;6.30;84.60;;;;;;4965375;28;20039;-68
2022/04/18 04:30:06;;;;;;;15.63;9.07;;;6.30;84.60;;;;;;4967463;28;20105;-68
2022/04/18 04:32:32;;;;;;;13.45;9.05;;;6.30;84.80;;;;;;4963728;28;20045;-67
2022/04/18 04:34:58;;;;;;;14.13;9.52;;;6.20;85.40;;;;;;4966610;28;20039;-68
2022/04/18 04:37:23;;;;;;;12.23;8.82;;;6.30;85.50;;;;;;4981812;28;20094;-68
2022/04/18 04:39:49;;;;;;;16.13;9.25;;;6.30;85.80;;;;;;4966209;28;20130;-68
2022/04/18 04:42:15;;;;;;;14.30;9.73;;;6.30;86.20;;;;;;4968750;28;20045;-68
2022/04/18 04:44:40;;;;;;;15.82;9.18;;;6.40;87.00;;;;;;4967555;28;20459;-68
2022/04/18 04:47:06;;;;;;;14.85;8.90;;;6.50;87.30;;;;;;4966742;28;20130;-68
2022/04/18 04:49:31;;;;;;;13.35;9.00;;;6.60;87.50;;;;;;4968637;28;20035;-68
2022/04/18 04:51:57;;;;;;;13.90;9.25;;;6.70;87.50;;;;;;4966661;28;20192;-68
2022/04/18 04:54:23;;;;;;;12.90;9.40;;;6.80;86.90;;;;;;4967060;28;20027;-68
2022/04/18 04:56:49;;;;;;;12.20;8.68;;;6.90;86.70;;;;;;4966181;28;20070;-68
2022/04/18 04:59:14;;;;;;;14.50;9.57;;;7.10;86.80;;;;;;4965960;28;20062;-68
2022/04/18 05:01:40;;;;;;;10.90;8.65;;;7.20;86.80;;;;;;4964549;28;20501;-68
2022/04/18 05:04:05;;;;;;;12.65;8.25;;;7.70;86.80;;;;;;4967795;28;20061;-68
2022/04/18 05:06:31;;;;;;;11.77;9.18;;;8.50;85.70;;;;;;4966720;28;20054;-68
2022/04/18 05:08:56;;;;;;;17.52;9.15;;;9.40;81.70;;;;;;4966473;28;20043;-68
2022/04/18 05:11:22;;;;;;;15.23;8.43;;;10.40;78.00;;;;;;4968077;28;20073;-68
2022/04/18 05:13:48;;;;;;;13.02;8.45;;;11.40;75.30;;;;;;4968096;28;20117;-68
2022/04/18 05:16:13;;;;;;;14.40;8.50;;;12.40;72.10;;;;;;4966735;28;20122;-68
2022/04/18 05:18:39;;;;;;;14.40;8.45;;;13.30;68.30;;;;;;4966516;28;20050;-68
2022/04/18 05:21:05;;;;;;;12.07;9.38;;;14.40;66.40;;;;;;4967856;28;20066;-68
2022/04/18 05:23:30;;;;;;;10.98;8.05;;;15.20;62.90;;;;;;4981758;28;20104;-68
2022/04/18 05:25:56;;;;;;;12.20;7.95;;;16.10;60.00;;;;;;4965200;28;20405;-69
2022/04/18 05:28:21;;;;;;;10.57;7.88;;;16.90;57.90;;;;;;4967254;28;20050;-68
2022/04/18 05:30:47;;;;;;;9.75;7.40;;;17.60;55.80;;;;;;4963409;28;20070;-68
2022/04/18 05:33:13;;;;;;;9.20;8.27;;;18.30;53.80;;;;;;4968192;28;20039;-68
2022/04/18 05:35:39;;;;;;;12.30;7.90;;;19.10;51.50;;;;;;4963218;28;20102;-69
2022/04/18 05:38:05;;;;;;;9.18;6.88;;;19.80;49.70;;;;;;4967056;28;20512;-68
2022/04/18 05:40:31;;;;;;;10.73;8.68;;;20.60;48.70;;;;;;4970229;28;20043;-68
2022/04/18 05:42:57;;;;;;;8.43;7.50;;;21.40;46.80;;;;;;4972497;28;20053;-69
2022/04/18 05:45:23;;;;;;;8.52;7.30;;;22.00;45.00;;;;;;4986010;28;20608;-68
2022/04/18 05:47:49;;;;;;;9.85;7.28;;;22.70;44.40;;;;;;4966715;28;20130;-69
2022/04/18 05:50:15;;;;;;;8.30;7.28;;;23.40;43.10;;;;;;4984617;28;20058;-69
2022/04/18 05:52:40;;;;;;;9.98;7.72;;;24.00;41.50;;;;;;4969099;28;20046;-69
2022/04/18 05:55:06;;;;;;;10.25;7.72;;;24.40;40.00;;;;;;4972027;28;20118;-69
2022/04/18 05:57:32;;;;;;;11.52;9.15;;;24.80;40.20;;;;;;4971345;28;20042;-69
2022/04/18 05:59:57;;;;;;;11.25;8.38;;;25.40;39.50;;;;;;4969669;28;20047;-69
2022/04/18 06:02:23;;;;;;;9.10;7.68;;;25.80;37.60;;;;;;4969755;28;20049;-69
2022/04/18 06:04:49;;;;;;;13.13;8.13;;;26.30;37.60;;;;;;4968676;28;20168;-69
2022/04/18 06:07:14;;;;;;;11.57;8.63;;;26.60;36.70;;;;;;4968864;28;20078;-69
2022/04/18 06:09:40;;;;;;;10.20;8.60;;;26.90;35.90;;;;;;4969460;28;20043;-69
2022/04/18 06:12:06;;;;;;;10.82;8.80;;;27.10;35.30;;;;;;4983190;28;20039;-69
2022/04/18 06:14:32;;;;;;;9.98;8.30;;;27.20;35.40;;;;;;4968318;28;21015;-69
2022/04/18 06:16:57;;;;;;;10.52;8.80;;;27.60;35.30;;;;;;4970573;28;20389;-69
2022/04/18 06:19:23;;;;;;;9.80;7.97;;;28.00;34.70;;;;;;4969626;28;20039;-69
2022/04/18 06:21:48;;;;;;;9.95;8.02;;;28.20;33.90;;;;;;4969518;28;20047;-69
2022/04/18 06:24:14;;;;;;;12.45;8.07;;;28.50;33.80;;;;;;4968045;28;20039;-69
2022/04/18 06:26:40;;;;;;;10.52;7.88;;;28.80;34.00;;;;;;4963208;28;20493;-69
2022/04/18 06:29:06;;;;;;;11.98;8.30;;;29.00;33.70;;;;;;4968074;28;20096;-69
2022/04/18 06:31:31;;;;;;;11.05;8.15;;;28.50;32.30;;;;;;4970659;28;20169;-69
2022/04/18 06:33:57;;;;;;;8.93;7.82;;;27.80;33.00;;;;;;4967909;28;20038;-69
2022/04/18 06:36:22;;;;;;;9.18;7.28;;;26.80;34.50;;;;;;4968361;28;20042;-69
2022/04/18 06:38:48;;;;;;;9.02;8.02;;;25.90;36.70;;;;;;4966203;28;20456;-69
2022/04/18 06:41:14;;;;;;;10.48;8.27;;;25.10;37.20;;;;;;4977326;28;20055;-69
2022/04/18 06:43:39;;;;;;;11.48;7.72;;;24.60;37.90;;;;;;4985193;28;20035;-69
2022/04/18 06:46:05;;;;;;;10.85;8.63;;;23.80;38.50;;;;;;4984995;28;20053;-68
2022/04/18 06:48:31;;;;;;;13.02;8.75;;;23.10;40.40;;;;;;4969161;28;20104;-69
2022/04/18 06:50:56;;;;;;;10.70;8.70;;;22.50;41.90;;;;;;4968732;28;20042;-68
2022/04/18 06:53:22;;;;;;;9.32;7.82;;;22.20;40.20;;;;;;4964779;28;20035;-68
2022/04/18 06:58:32;;;;;;;9.82;7.63;;;21.30;42.20;;;;;;4969108;28;20658;-68
2022/04/18 07:00:57;;;;;;;15.07;8.60;;;20.90;42.00;;;;;;4969021;28;20066;-68
2022/04/18 07:03:23;;;;;;;9.85;8.82;;;20.60;43.30;;;;;;4967426;28;20480;-68
2022/04/18 07:05:49;;;;;;;8.77;7.55;;;20.30;43.10;;;;;;4970924;28;20043;-68
2022/04/18 07:08:15;;;;;;;10.20;8.55;;;19.90;44.50;;;;;;4968680;28;20034;-67
2022/04/18 07:10:40;;;;;;;8.80;7.85;;;19.60;45.10;;;;;;4968072;28;20280;-67
2022/04/18 07:13:06;;;;;;;8.38;7.57;;;19.50;45.50;;;;;;4969734;28;20497;-67
2022/04/18 07:15:32;;;;;;;12.00;8.15;;;19.40;45.60;;;;;;4969324;28;20039;-67
2022/04/18 07:17:59;;;;;;;9.30;8.07;;;19.20;44.30;;;;;;4970870;28;20039;-67
2022/04/18 07:20:25;;;;;;;8.73;7.07;;;19.10;46.10;;;;;;4963143;28;20046;-67
2022/04/18 07:22:51;;;;;;;10.48;8.38;;;18.90;45.00;;;;;;4962094;28;20117;-67
2022/04/18 07:25:17;;;;;;;10.82;8.10;;;18.70;45.50;;;;;;4963840;28;20666;-67
2022/04/18 07:27:44;;;;;;;11.55;8.35;;;18.60;45.50;;;;;;4983451;28;20109;-67
2022/04/18 07:30:10;;;;;;;8.63;7.25;;;18.40;45.70;;;;;;4964568;28;20034;-67
2022/04/18 07:32:43;;;;;;;8.80;6.40;;;18.30;45.40;;;;;;4964647;28;20047;-68
2022/04/18 07:35:10;;;;;;;7.97;7.18;;;18.10;44.80;;;;;;4966412;28;20117;-67
2022/04/18 07:37:36;;;;;;;12.02;7.18;;;18.00;46.40;;;;;;4967563;28;20066;-68
2022/04/18 07:40:03;;;;;;;7.38;6.55;;;17.80;45.50;;;;;;4967058;28;20038;-67
2022/04/18 07:42:28;;;;;;;10.18;6.80;;;17.80;47.20;;;;;;4984394;28;20077;-67
2022/04/18 07:44:54;;;;;;;8.82;6.43;;;17.80;48.30;;;;;;4965678;28;20548;-67
2022/04/18 07:47:20;;;;;;;8.73;7.07;;;17.90;49.70;;;;;;4965126;28;20110;-67
2022/04/18 07:49:45;;;;;;;10.20;6.32;;;18.00;46.70;;;;;;4963824;28;20126;-67
2022/04/18 07:52:17;;;;;;;9.88;7.30;;;18.00;47.50;;;;;;4968822;28;20031;-67
2022/04/18 07:54:43;;;;;;;9.02;6.18;;;18.20;48.70;;;;;;4982763;28;20078;-67
2022/04/18 07:57:08;;;;;;;8.85;6.00;;;18.30;47.80;;;;;;4967076;28;20050;-67
2022/04/18 07:59:34;;;;;;;8.43;6.07;;;18.30;47.00;;;;;;4968064;28;20046;-67
2022/04/18 08:02:01;;;;;;;7.95;5.55;;;18.20;45.60;;;;;;4980832;28;20043;-67
2022/04/18 08:04:27;;;;;;;8.15;5.38;;;18.00;45.30;;;;;;4979405;28;20043;-67
2022/04/18 08:06:52;;;;;;;10.00;6.38;;;18.00;47.40;;;;;;4981015;28;20113;-67
2022/04/18 08:09:18;;;;;;;8.23;5.93;;;17.90;44.90;;;;;;4968220;28;20035;-67
2022/04/18 08:11:43;;;;;;;9.57;6.15;;;17.80;45.50;;;;;;4967303;28;20126;-67
2022/04/18 08:14:09;;;;;;;6.70;5.28;;;17.80;45.90;;;;;;4967968;28;20039;-67
2022/04/18 08:16:35;;;;;;;8.27;5.90;;;17.70;46.40;;;;;;4966614;28;20126;-67
2022/04/18 08:19:00;;;;;;;6.97;5.32;;;17.70;48.90;;;;;;4964412;28;20046;-67
2022/04/18 08:21:26;;;;;;;7.07;5.63;;;17.90;49.10;;;;;;4964462;28;20049;-67
2022/04/18 08:23:52;;;;;;;8.18;6.22;;;17.90;46.70;;;;;;4966566;28;20146;-67
2022/04/18 08:26:19;;;;;;;11.68;6.03;;;17.90;46.40;;;;;;4966673;28;20663;-67
2022/04/18 08:28:45;;;;;;;7.88;5.70;;;17.70;45.90;;;;;;4968357;28;20133;-67
2022/04/18 08:31:11;;;;;;;7.28;5.97;;;17.80;47.60;;;;;;4966431;28;20051;-67
2022/04/18 08:33:37;;;;;;;8.95;5.55;;;17.90;48.10;;;;;;4969645;28;20037;-67
2022/04/18 08:36:03;;;;;;;6.85;5.30;;;18.00;47.60;;;;;;4965108;28;20039;-67
2022/04/18 08:38:29;;;;;;;7.00;5.55;;;18.10;47.80;;;;;;4968311;28;20038;-67
2022/04/18 08:40:57;;;;;;;6.78;5.15;;;18.20;49.30;;;;;;4969688;28;20878;-68
2022/04/18 08:43:22;;;;;;;9.10;5.60;;;18.40;47.50;;;;;;4972174;28;20125;-68
2022/04/18 08:45:49;;;;;;;7.10;5.53;;;18.30;47.20;;;;;;4968962;28;20114;-67
2022/04/18 08:53:47;;;;;;;9.23;5.65;;;18.20;47.40;;;;;;4966589;28;20436;-68
2022/04/18 08:56:13;;;;;;;7.35;5.22;;;18.20;47.20;;;;;;4965780;28;20406;-67
2022/04/18 08:58:40;;;;;;;20.33;5.80;;;18.30;47.20;;;;;;4965834;28;20062;-68
2022/04/18 09:01:06;;;;;;;8.13;5.60;;;18.50;48.20;;;;;;4967352;28;20129;-69
2022/04/18 09:03:31;;;;;;;5.65;5.05;;;18.50;46.60;;;;;;4980490;28;20138;-65
2022/04/18 09:06:06;;;;;;;8.80;5.65;;;18.50;46.50;;;;;;4965661;28;20046;-65
2022/04/18 09:08:43;;;;;;;6.70;6.00;;;18.40;44.50;;;;;;4981299;28;20408;-64
2022/04/18 09:11:08;;;;;;;7.63;4.90;;;18.40;47.10;;;;;;4963355;28;20066;-65
2022/04/18 09:13:42;;;;;;;7.85;5.45;;;18.40;47.90;;;;;;4965733;28;20106;-64
2022/04/18 09:16:15;;;;;;;10.13;5.32;;;18.40;45.50;;;;;;4970075;28;20073;-64
2022/04/18 09:18:42;;;;;;;9.00;5.80;;;18.40;48.00;;;;;;4966367;28;20409;-65
2022/04/18 09:21:08;;;;;;;7.10;5.45;;;18.40;47.20;;;;;;4972909;28;20121;-65
2022/04/18 09:23:35;;;;;;;7.90;5.40;;;18.40;46.80;;;;;;4971734;28;20047;-65
2022/04/18 09:26:03;;;;;;;9.38;5.13;;;18.50;47.00;;;;;;4966506;28;20068;-64
2022/04/18 09:28:33;;;;;;;6.97;5.53;;;18.50;47.40;;;;;;4969454;28;20042;-64
2022/04/18 09:31:00;;;;;;;11.10;5.50;;;18.60;48.90;;;;;;4971075;28;20070;-65
2022/04/18 09:33:32;;;;;;;12.05;5.60;;;18.60;48.30;;;;;;4967880;28;20402;-64
2022/04/18 09:36:05;;;;;;;6.93;5.30;;;18.70;46.30;;;;;;4985489;28;20057;-63
2022/04/18 09:38:34;;;;;;;7.68;5.35;;;18.60;47.80;;;;;;4970111;28;20122;-64
2022/04/18 09:41:00;;;;;;;8.90;4.93;;;18.70;48.20;;;;;;4970601;28;20413;-65
2022/04/18 09:43:37;;;;;;;10.30;5.43;;;18.80;48.60;;;;;;4971083;28;20050;-65
2022/04/18 09:46:02;;;;;;;9.02;5.53;;;18.90;48.90;;;;;;4970824;28;20071;-64
2022/04/18 09:48:33;;;;;;;7.72;5.53;;;19.00;48.40;;;;;;4969149;28;20081;-64
2022/04/18 09:50:59;;;;;;;9.23;6.03;;;19.20;48.60;;;;;;4967728;28;20035;-64
2022/04/18 09:53:26;;;;;;;6.68;5.00;;;19.10;46.30;;;;;;4968921;28;20046;-64
2022/04/18 09:55:56;;;;;;;15.73;4.95;;;19.20;47.30;;;;;;4968850;28;20110;-64
2022/04/18 09:58:22;;;;;;;8.57;5.55;;;19.30;48.00;;;;;;4971257;28;20489;-64
2022/04/18 10:00:49;;;;;;;6.28;5.07;;;19.40;48.90;;;;;;4969944;28;20141;-64
2022/04/18 10:03:18;;;;;;;7.75;5.28;;;19.40;45.80;;;;;;4967140;28;20423;-64
2022/04/18 10:05:47;;;;;;;10.52;5.30;;;19.40;45.70;;;;;;4969232;28;20133;-65
2022/04/18 10:08:14;;;;;;;9.88;5.07;;;19.40;47.50;;;;;;4967230;28;20031;-65
2022/04/18 10:10:40;;;;;;;11.52;5.15;;;19.20;47.40;;;;;;4969134;28;20050;-65
2022/04/18 10:13:09;;;;;;;10.48;4.80;;;19.10;48.40;;;;;;4972243;28;20493;-64
2022/04/18 10:15:36;;;;;;;4.57;4.10;;;19.20;46.90;;;;;;4983027;28;20051;-65
2022/04/18 10:18:04;;;;;;;8.38;4.03;;;19.40;47.20;;;;;;4970917;28;20563;-63
2022/04/18 10:21:01;;;;;;;8.13;6.10;;;19.50;46.80;;;;;;4970371;28;20039;-64
2022/04/18 10:24:01;;;;;;;5.15;3.70;;;19.70;49.30;;;;;;4963026;28;20042;-65
2022/04/18 10:27:07;;;;;;;5.20;3.53;;;19.90;46.70;;;;;;4968621;28;20039;-65
2022/04/18 10:29:41;;;;;;;5.50;3.75;;;20.00;43.70;;;;;;4966101;28;20615;-65
2022/04/18 10:32:08;;;;;;;6.57;4.03;;;20.10;43.90;;;;;;4967696;28;20047;-66
2022/04/18 10:34:35;;;;;;;7.10;3.85;;;20.20;45.30;;;;;;4968381;28;20085;-65
2022/04/18 10:37:03;;;;;;;4.53;3.22;;;20.20;46.00;;;;;;4966676;28;20374;-64
2022/04/18 10:39:34;;;;;;;7.45;3.05;;;20.30;44.60;;;;;;4967285;28;20043;-65
2022/04/18 10:42:24;;;;;;;5.85;3.83;;;20.40;44.50;;;;;;4968664;28;20058;-65
2022/04/18 10:45:26;;;;;;;9.10;4.00;;;20.50;42.90;;;;;;4969490;28;20046;-65
2022/04/18 10:47:55;;;;;;;3.65;2.80;;;20.50;42.90;;;;;;4950779;28;20049;-66
2022/04/18 10:50:24;;;;;;;14.00;2.45;;;20.50;40.70;;;;;;4967915;28;20047;-66
2022/04/18 10:53:11;;;;;;;3.90;1.83;;;20.50;40.00;;;;;;4968708;28;20038;-66
2022/04/18 10:55:38;;;;;;;3.92;3.05;;;20.50;39.40;;;;;;4965216;28;20053;-66
2022/04/18 10:58:15;;;;;;;5.85;3.63;;;20.60;40.60;;;;;;4967689;28;20505;-65
2022/04/18 11:00:55;;;;;;;4.68;3.55;;;20.60;42.50;;;;;;4968400;28;20041;-66
2022/04/18 11:03:43;;;;;;;3.67;1.40;;;20.50;42.50;;;;;;4969058;28;20101;-65
2022/04/18 11:06:15;;;;;;;2.33;1.23;;;20.70;37.50;;;;;;4969591;28;20458;-65
2022/04/18 11:08:41;;;;;;;3.03;1.33;;;20.50;37.50;;;;;;4965469;28;20035;-65
2022/04/18 11:11:16;;;;;;;3.05;0.90;;;20.60;40.00;;;;;;4961463;28;20039;-65
2022/04/18 11:13:49;;;;;;;2.33;0.93;;;20.60;37.60;;;;;;4967676;28;20047;-65
2022/04/18 11:16:27;;;;;;;3.45;1.90;;;20.70;37.30;;;;;;4969372;28;20286;-66
2022/04/18 11:19:16;;;;;;;3.47;1.95;;;20.90;40.10;;;;;;4967036;28;20460;-65
2022/04/18 11:21:56;;;;;;;2.50;1.75;;;20.80;40.70;;;;;;4968045;28;20390;-65
2022/04/18 11:24:42;;;;;;;5.47;2.47;;;20.90;41.40;;;;;;4965376;28;20061;-65
2022/04/18 11:27:13;;;;;;;2.40;1.80;;;21.20;41.90;;;;;;4967568;28;20046;-65
2022/04/18 11:29:40;;;;;;;8.65;2.42;;;21.20;39.40;;;;;;4967307;28;20061;-65
2022/04/18 11:32:07;;;;;;;4.30;2.53;;;21.20;40.50;;;;;;4962112;28;20050;-65
2022/04/18 11:34:34;;;;;;;3.80;2.13;;;21.20;41.70;;;;;;4968123;28;20172;-65
2022/04/18 11:37:04;;;;;;;4.97;2.70;;;21.30;40.30;;;;;;4966856;28;20552;-65
2022/04/18 11:39:49;;;;;;;3.70;2.40;;;21.30;39.30;;;;;;4985041;28;20039;-65
2022/04/18 11:42:31;;;;;;;2.70;2.22;;;21.40;40.90;;;;;;4967276;28;20096;-65
2022/04/18 11:44:59;;;;;;;4.28;2.83;;;21.50;40.20;;;;;;4965791;28;20504;-65
2022/04/18 11:47:45;;;;;;;3.30;2.40;;;21.50;38.60;;;;;;4968479;28;20043;-65
2022/04/18 11:50:13;;;;;;;5.30;2.72;;;21.50;38.70;;;;;;4963061;28;20053;-65
2022/04/18 11:52:40;;;;;;;3.65;2.53;;;21.30;39.80;;;;;;4966459;28;20058;-65
2022/04/18 11:55:08;;;;;;;3.63;2.65;;;21.00;40.30;;;;;;4964138;28;20034;-65
2022/04/18 11:57:36;;;;;;;3.38;2.42;;;21.00;40.50;;;;;;4966923;28;20483;-65
2022/04/18 12:08:48;;;;;;;3.97;2.80;;;21.10;40.70;;;;;;4984289;28;20050;-65
2022/04/18 12:11:15;;;;;;;3.15;2.80;;;21.20;40.70;;;;;;4965354;28;20189;-65
2022/04/18 12:13:48;;;;;;;15.85;2.95;;;21.30;40.70;;;;;;4980005;28;20543;-65
2022/04/18 12:16:20;;;;;;;3.85;3.08;;;21.10;42.50;;;;;;4965052;28;20097;-65
2022/04/18 12:18:46;;;;;;;4.15;3.00;;;20.90;39.80;;;;;;4965126;28;20046;-65
2022/04/18 12:21:12;;;;;;;9.20;3.10;;;20.60;42.10;;;;;;4967521;28;20489;-65
2022/04/18 12:23:38;;;;;;;7.43;3.10;;;20.60;41.10;;;;;;4982925;28;20077;-65
2022/04/18 12:26:09;;;;;;;7.90;3.90;;;20.70;40.90;;;;;;4963719;28;20086;-65
2022/04/18 12:28:35;;;;;;;6.43;3.47;;;20.80;40.60;;;;;;4963951;28;20043;-65
2022/04/18 12:31:10;;;;;;;5.78;2.72;;;20.90;40.30;;;;;;4961841;28;20062;-65
2022/04/18 12:33:47;;;;;;;4.90;3.77;;;21.00;40.80;;;;;;4966534;28;20481;-65
2022/04/18 12:36:38;;;;;;;4.60;3.33;;;21.10;41.20;;;;;;4962738;28;20302;-65
2022/04/18 12:39:05;;;;;;;5.00;3.38;;;21.00;39.50;;;;;;4966341;28;20405;-65
2022/04/18 12:41:32;;;;;;;4.85;3.17;;;21.10;41.20;;;;;;4983052;28;20038;-65
2022/04/18 12:43:59;;;;;;;3.63;3.08;;;21.10;42.30;;;;;;4964993;28;20050;-65
2022/04/18 12:46:29;;;;;;;4.57;3.63;;;20.60;39.30;;;;;;4963679;28;20137;-65
2022/04/18 12:48:54;;;;;;;4.72;3.63;;;20.40;42.00;;;;;;4962134;28;20055;-65
2022/04/18 12:51:35;;;;;;;3.53;3.20;;;20.30;42.60;;;;;;4964598;28;20065;-65
2022/04/18 12:54:01;;;;;;;7.65;3.15;;;20.50;42.10;;;;;;4963492;28;20038;-65
2022/04/18 12:56:28;;;;;;;5.82;3.75;;;20.70;41.80;;;;;;4966575;28;20042;-66
2022/04/18 12:58:53;;;;;;;2.97;2.53;;;20.90;42.20;;;;;;4967172;28;20050;-65
2022/04/18 13:01:24;;;;;;;7.88;4.20;;;20.90;42.20;;;;;;4965228;28;20676;-65
2022/04/18 13:03:51;;;;;;;6.63;3.53;;;20.50;40.20;;;;;;4965648;28;20058;-65
2022/04/18 13:06:43;;;;;;;3.30;2.80;;;20.40;41.20;;;;;;4964812;28;20178;-64
2022/04/18 13:09:10;;;;;;;4.00;3.05;;;20.60;41.80;;;;;;4960467;28;20050;-65
2022/04/18 13:11:41;;;;;;;4.43;2.75;;;20.90;41.90;;;;;;4965107;28;20031;-66
2022/04/18 13:14:10;;;;;;;4.95;3.00;;;21.10;40.80;;;;;;4964446;28;20046;-65
2022/04/18 13:16:36;;;;;;;8.48;3.40;;;21.30;40.90;;;;;;4967321;28;20043;-65
2022/04/18 13:19:04;;;;;;;6.93;3.88;;;21.10;39.80;;;;;;4980504;28;20046;-65